createdAt,value
2017-11-20T00:00:43.551Z,1013.72
2017-11-20T00:01:52.188Z,1013.7
2017-11-20T00:03:00.783Z,1013.66
2017-11-20T00:04:09.410Z,1013.69
2017-11-20T00:05:18.034Z,1013.72
2017-11-20T00:06:26.652Z,1013.72
2017-11-20T00:07:35.276Z,1013.72
2017-11-20T00:08:43.902Z,1013.71
2017-11-20T00:09:52.525Z,1013.68
2017-11-20T00:11:01.151Z,1013.73
2017-11-20T00:12:09.766Z,1013.74
2017-11-20T00:13:18.390Z,1013.72
2017-11-20T00:14:27.285Z,1013.69
2017-11-20T00:15:35.909Z,1013.73
2017-11-20T00:16:44.539Z,1013.66
2017-11-20T00:17:53.174Z,1013.64
2017-11-20T00:19:01.785Z,1013.63
2017-11-20T00:20:10.409Z,1013.62
2017-11-20T00:21:19.027Z,1013.56
2017-11-20T00:22:27.650Z,1013.59
2017-11-20T00:23:36.275Z,1013.56
2017-11-20T00:24:44.902Z,1013.58
2017-11-20T00:25:53.530Z,1013.6
2017-11-20T00:27:02.151Z,1013.6
2017-11-20T00:28:10.777Z,1013.6
2017-11-20T00:29:19.398Z,1013.6
2017-11-20T00:30:28.014Z,1013.63
2017-11-20T00:31:36.639Z,1013.66
2017-11-20T00:32:45.263Z,1013.63
2017-11-20T00:33:54.150Z,1013.65
2017-11-20T00:35:03.036Z,1013.66
2017-11-20T00:36:11.666Z,1013.66
2017-11-20T00:37:20.287Z,1013.63
2017-11-20T00:38:28.914Z,1013.61
2017-11-20T00:39:37.531Z,1013.58
2017-11-20T00:40:46.701Z,1013.59
2017-11-20T00:41:55.329Z,1013.55
2017-11-20T00:43:03.948Z,1013.59
2017-11-20T00:44:12.570Z,1013.54
2017-11-20T00:45:21.201Z,1013.49
2017-11-20T00:46:29.818Z,1013.49
2017-11-20T00:47:38.437Z,1013.47
2017-11-20T00:48:47.067Z,1013.52
2017-11-20T00:49:55.688Z,1013.48
2017-11-20T00:51:04.308Z,1013.46
2017-11-20T00:52:12.933Z,1013.51
2017-11-20T00:53:21.820Z,1013.56
2017-11-20T00:54:30.448Z,1013.53
2017-11-20T00:55:39.068Z,1013.53
2017-11-20T00:56:47.691Z,1013.5
2017-11-20T00:57:56.321Z,1013.58
2017-11-20T00:59:04.943Z,1013.52
2017-11-20T01:00:13.564Z,1013.55
2017-11-20T01:01:22.187Z,1013.53
2017-11-20T01:02:30.819Z,1013.6
2017-11-20T01:03:39.434Z,1013.57
2017-11-20T01:04:48.059Z,1013.57
2017-11-20T01:05:56.688Z,1013.55
2017-11-20T01:07:05.305Z,1013.53
2017-11-20T01:08:13.930Z,1013.59
2017-11-20T01:09:22.564Z,1013.57
2017-11-20T01:10:31.180Z,1013.49
2017-11-20T01:11:39.807Z,1013.51
2017-11-20T01:12:48.422Z,1013.58
2017-11-20T01:13:57.043Z,1013.56
2017-11-20T01:15:05.677Z,1013.57
2017-11-20T01:16:14.566Z,1013.6
2017-11-20T01:17:23.194Z,1013.59
2017-11-20T01:18:31.806Z,1013.59
2017-11-20T01:19:40.431Z,1013.56
2017-11-20T01:20:49.059Z,1013.58
2017-11-20T01:21:57.680Z,1013.61
2017-11-20T01:23:06.308Z,1013.55
2017-11-20T01:24:15.190Z,1013.54
2017-11-20T01:25:23.816Z,1013.53
2017-11-20T01:26:32.436Z,1013.53
2017-11-20T01:27:41.057Z,1013.51
2017-11-20T01:28:49.685Z,1013.53
2017-11-20T01:29:58.308Z,1013.45
2017-11-20T01:31:06.925Z,1013.55
2017-11-20T01:32:15.551Z,1013.46
2017-11-20T01:33:24.174Z,1013.44
2017-11-20T01:34:32.789Z,1013.46
2017-11-20T01:35:41.416Z,1013.46
2017-11-20T01:36:50.040Z,1013.43
2017-11-20T01:37:58.664Z,1013.44
2017-11-20T01:39:07.286Z,1013.47
2017-11-20T01:40:15.901Z,1013.45
2017-11-20T01:41:24.526Z,1013.43
2017-11-20T01:42:33.152Z,1013.42
2017-11-20T01:43:41.769Z,1013.45
2017-11-20T01:44:50.400Z,1013.4
2017-11-20T01:45:59.025Z,1013.43
2017-11-20T01:47:07.916Z,1013.41
2017-11-20T01:48:16.540Z,1013.43
2017-11-20T01:49:25.157Z,1013.43
2017-11-20T01:50:33.780Z,1013.4
2017-11-20T01:51:42.398Z,1013.37
2017-11-20T01:52:51.289Z,1013.35
2017-11-20T01:53:59.910Z,1013.42
2017-11-20T01:55:08.531Z,1013.4
2017-11-20T01:56:17.159Z,1013.44
2017-11-20T01:57:25.781Z,1013.4
2017-11-20T01:58:34.396Z,1013.38
2017-11-20T01:59:43.023Z,1013.37
2017-11-20T02:00:51.912Z,1013.39
2017-11-20T02:02:00.526Z,1013.43
2017-11-20T02:03:09.147Z,1013.4
2017-11-20T02:04:18.037Z,1013.37
2017-11-20T02:05:26.664Z,1013.34
2017-11-20T02:06:35.287Z,1013.39
2017-11-20T02:07:43.904Z,1013.37
2017-11-20T02:08:52.529Z,1013.37
2017-11-20T02:10:01.158Z,1013.38
2017-11-20T02:11:09.771Z,1013.39
2017-11-20T02:12:18.399Z,1013.34
2017-11-20T02:13:27.025Z,1013.32
2017-11-20T02:14:35.648Z,1013.33
2017-11-20T02:15:44.274Z,1013.29
2017-11-20T02:16:52.894Z,1013.25
2017-11-20T02:18:01.521Z,1013.27
2017-11-20T02:19:10.149Z,1013.22
2017-11-20T02:20:18.761Z,1013.21
2017-11-20T02:21:27.390Z,1013.27
2017-11-20T02:22:36.014Z,1013.27
2017-11-20T02:23:44.895Z,1013.27
2017-11-20T02:24:53.519Z,1013.27
2017-11-20T02:26:02.134Z,1013.28
2017-11-20T02:27:10.758Z,1013.2
2017-11-20T02:28:19.386Z,1013.21
2017-11-20T02:29:28.007Z,1013.19
2017-11-20T02:30:36.633Z,1013.21
2017-11-20T02:31:45.264Z,1013.17
2017-11-20T02:32:53.886Z,1013.16
2017-11-20T02:34:02.505Z,1013.21
2017-11-20T02:35:11.134Z,1013.17
2017-11-20T02:36:19.758Z,1013.17
2017-11-20T02:37:28.377Z,1013.16
2017-11-20T02:38:36.992Z,1013.22
2017-11-20T02:39:45.615Z,1013.24
2017-11-20T02:40:54.248Z,1013.2
2017-11-20T02:42:02.864Z,1013.25
2017-11-20T02:43:11.749Z,1013.19
2017-11-20T02:44:20.379Z,1013.22
2017-11-20T02:45:29.002Z,1013.2
2017-11-20T02:46:37.622Z,1013.2
2017-11-20T02:47:46.254Z,1013.16
2017-11-20T02:48:55.142Z,1013.14
2017-11-20T02:50:03.763Z,1013.21
2017-11-20T02:51:12.386Z,1013.1
2017-11-20T02:52:21.278Z,1013.11
2017-11-20T02:53:29.918Z,1013.1
2017-11-20T02:54:38.533Z,1013.1
2017-11-20T02:55:47.154Z,1013.11
2017-11-20T02:56:55.784Z,1013.08
2017-11-20T02:58:04.405Z,1013.07
2017-11-20T02:59:13.029Z,1013.03
2017-11-20T03:00:21.654Z,1013.07
2017-11-20T03:01:30.279Z,1013.04
2017-11-20T03:02:38.893Z,1012.98
2017-11-20T03:03:47.518Z,1012.99
2017-11-20T03:04:56.137Z,1012.96
2017-11-20T03:06:04.767Z,1013
2017-11-20T03:07:13.393Z,1013.03
2017-11-20T03:08:22.015Z,1013.05
2017-11-20T03:09:30.639Z,1013.01
2017-11-20T03:10:39.266Z,1013.03
2017-11-20T03:11:48.145Z,1013.04
2017-11-20T03:12:56.777Z,1012.98
2017-11-20T03:14:05.397Z,1013.01
2017-11-20T03:15:14.025Z,1012.97
2017-11-20T03:16:22.646Z,1013
2017-11-20T03:17:31.267Z,1013.02
2017-11-20T03:18:40.159Z,1013.01
2017-11-20T03:19:48.776Z,1012.96
2017-11-20T03:20:57.398Z,1013
2017-11-20T03:22:06.017Z,1012.97
2017-11-20T03:23:14.638Z,1012.96
2017-11-20T03:24:23.267Z,1013.03
2017-11-20T03:25:31.898Z,1012.98
2017-11-20T03:26:40.516Z,1012.98
2017-11-20T03:27:49.141Z,1012.91
2017-11-20T03:28:57.766Z,1012.9
2017-11-20T03:30:06.390Z,1012.93
2017-11-20T03:31:15.017Z,1012.89
2017-11-20T03:32:23.638Z,1012.87
2017-11-20T03:33:32.254Z,1012.92
2017-11-20T03:34:40.882Z,1012.94
2017-11-20T03:35:49.778Z,1012.89
2017-11-20T03:36:58.399Z,1012.9
2017-11-20T03:38:07.037Z,1012.92
2017-11-20T03:39:15.911Z,1012.94
2017-11-20T03:40:24.537Z,1012.94
2017-11-20T03:41:33.165Z,1012.96
2017-11-20T03:42:41.779Z,1013
2017-11-20T03:43:50.405Z,1012.96
2017-11-20T03:44:59.032Z,1013
2017-11-20T03:46:07.657Z,1013.03
2017-11-20T03:47:16.279Z,1013.03
2017-11-20T03:48:24.905Z,1012.99
2017-11-20T03:49:33.804Z,1013.01
2017-11-20T03:50:42.431Z,1012.99
2017-11-20T03:51:51.050Z,1012.99
2017-11-20T03:52:59.674Z,1013.01
2017-11-20T03:54:08.299Z,1012.94
2017-11-20T03:55:16.924Z,1012.98
2017-11-20T03:56:25.535Z,1013.05
2017-11-20T03:57:34.168Z,1013.04
2017-11-20T03:58:43.063Z,1012.96
2017-11-20T03:59:51.954Z,1012.91
2017-11-20T04:01:00.577Z,1012.98
2017-11-20T04:02:09.485Z,1012.93
2017-11-20T04:03:18.107Z,1012.95
2017-11-20T04:04:26.729Z,1012.93
2017-11-20T04:05:35.350Z,1012.98
2017-11-20T04:06:43.980Z,1012.96
2017-11-20T04:07:52.602Z,1012.92
2017-11-20T04:09:01.225Z,1012.98
2017-11-20T04:10:10.119Z,1012.96
2017-11-20T04:11:18.733Z,1012.93
2017-11-20T04:12:27.356Z,1012.93
2017-11-20T04:13:35.977Z,1012.87
2017-11-20T04:14:44.601Z,1012.89
2017-11-20T04:15:53.228Z,1012.9
2017-11-20T04:17:01.848Z,1012.86
2017-11-20T04:18:10.475Z,1012.83
2017-11-20T04:19:19.096Z,1012.89
2017-11-20T04:20:27.727Z,1012.88
2017-11-20T04:21:36.349Z,1012.86
2017-11-20T04:22:44.971Z,1012.9
2017-11-20T04:23:53.594Z,1012.85
2017-11-20T04:25:02.225Z,1012.89
2017-11-20T04:26:11.133Z,1012.85
2017-11-20T04:27:19.750Z,1012.88
2017-11-20T04:28:28.374Z,1012.92
2017-11-20T04:29:36.995Z,1012.83
2017-11-20T04:30:45.613Z,1012.9
2017-11-20T04:31:54.245Z,1012.87
2017-11-20T04:33:02.858Z,1012.89
2017-11-20T04:34:11.488Z,1012.88
2017-11-20T04:35:20.108Z,1012.86
2017-11-20T04:36:28.741Z,1012.9
2017-11-20T04:37:37.366Z,1012.89
2017-11-20T04:38:45.987Z,1012.84
2017-11-20T04:39:54.608Z,1012.85
2017-11-20T04:41:03.236Z,1012.83
2017-11-20T04:42:11.856Z,1012.8
2017-11-20T04:43:20.470Z,1012.8
2017-11-20T04:44:29.098Z,1012.82
2017-11-20T04:45:37.726Z,1012.79
2017-11-20T04:46:46.360Z,1012.84
2017-11-20T04:47:54.973Z,1012.79
2017-11-20T04:49:03.597Z,1012.86
2017-11-20T04:50:12.221Z,1012.83
2017-11-20T04:51:20.844Z,1012.81
2017-11-20T04:52:29.764Z,1012.83
2017-11-20T04:53:38.392Z,1012.81
2017-11-20T04:54:47.017Z,1012.81
2017-11-20T04:55:55.631Z,1012.78
2017-11-20T04:57:04.261Z,1012.77
2017-11-20T04:58:12.891Z,1012.76
2017-11-20T04:59:21.775Z,1012.77
2017-11-20T05:00:30.397Z,1012.73
2017-11-20T05:01:39.023Z,1012.71
2017-11-20T05:02:47.646Z,1012.79
2017-11-20T05:03:56.273Z,1012.77
2017-11-20T05:05:04.891Z,1012.73
2017-11-20T05:06:13.783Z,1012.74
2017-11-20T05:07:22.406Z,1012.72
2017-11-20T05:08:31.294Z,1012.78
2017-11-20T05:09:39.929Z,1012.77
2017-11-20T05:10:48.543Z,1012.74
2017-11-20T05:11:57.170Z,1012.72
2017-11-20T05:13:06.064Z,1012.81
2017-11-20T05:14:14.679Z,1012.83
2017-11-20T05:15:23.304Z,1012.81
2017-11-20T05:16:31.931Z,1012.84
2017-11-20T05:17:40.562Z,1012.81
2017-11-20T05:18:49.187Z,1012.84
2017-11-20T05:19:57.809Z,1012.81
2017-11-20T05:21:06.696Z,1012.81
2017-11-20T05:22:15.321Z,1012.88
2017-11-20T05:23:23.934Z,1012.86
2017-11-20T05:24:32.819Z,1012.8
2017-11-20T05:25:41.443Z,1012.84
2017-11-20T05:26:50.066Z,1012.77
2017-11-20T05:27:58.687Z,1012.82
2017-11-20T05:29:07.317Z,1012.82
2017-11-20T05:30:15.938Z,1012.88
2017-11-20T05:31:24.566Z,1012.87
2017-11-20T05:32:33.186Z,1012.8
2017-11-20T05:33:41.812Z,1012.91
2017-11-20T05:34:50.440Z,1012.93
2017-11-20T05:35:59.062Z,1012.92
2017-11-20T05:37:07.683Z,1012.91
2017-11-20T05:38:16.313Z,1012.88
2017-11-20T05:39:24.944Z,1012.9
2017-11-20T05:40:33.572Z,1012.85
2017-11-20T05:41:42.185Z,1012.87
2017-11-20T05:42:50.812Z,1012.87
2017-11-20T05:43:59.449Z,1012.85
2017-11-20T05:45:08.062Z,1012.84
2017-11-20T05:46:16.689Z,1012.85
2017-11-20T05:47:25.308Z,1012.78
2017-11-20T05:48:33.933Z,1012.83
2017-11-20T05:49:42.564Z,1012.86
2017-11-20T05:50:51.442Z,1012.86
2017-11-20T05:52:00.084Z,1012.84
2017-11-20T05:53:08.697Z,1012.83
2017-11-20T05:54:17.320Z,1012.83
2017-11-20T05:55:25.998Z,1012.82
2017-11-20T05:56:34.638Z,1012.83
2017-11-20T05:57:43.524Z,1012.81
2017-11-20T05:58:52.142Z,1012.82
2017-11-20T06:00:00.772Z,1012.83
2017-11-20T06:01:09.391Z,1012.8
2017-11-20T06:02:18.021Z,1012.79
2017-11-20T06:03:26.637Z,1012.83
2017-11-20T06:04:35.259Z,1012.81
2017-11-20T06:05:44.151Z,1012.78
2017-11-20T06:06:52.770Z,1012.81
2017-11-20T06:08:01.396Z,1012.78
2017-11-20T06:09:10.016Z,1012.81
2017-11-20T06:10:18.638Z,1012.84
2017-11-20T06:11:27.266Z,1012.82
2017-11-20T06:12:35.883Z,1012.8
2017-11-20T06:13:44.512Z,1012.78
2017-11-20T06:14:53.137Z,1012.82
2017-11-20T06:16:01.756Z,1012.84
2017-11-20T06:17:10.640Z,1012.79
2017-11-20T06:18:19.257Z,1012.81
2017-11-20T06:19:28.158Z,1012.79
2017-11-20T06:20:37.051Z,1012.79
2017-11-20T06:21:45.669Z,1012.86
2017-11-20T06:22:54.288Z,1012.85
2017-11-20T06:24:02.925Z,1012.89
2017-11-20T06:25:11.542Z,1012.89
2017-11-20T06:26:20.163Z,1012.87
2017-11-20T06:27:29.068Z,1012.86
2017-11-20T06:28:37.964Z,1012.84
2017-11-20T06:29:46.585Z,1012.81
2017-11-20T06:30:55.205Z,1012.83
2017-11-20T06:32:04.098Z,1012.78
2017-11-20T06:33:12.728Z,1012.81
2017-11-20T06:34:21.614Z,1012.81
2017-11-20T06:35:30.233Z,1012.85
2017-11-20T06:36:38.863Z,1012.88
2017-11-20T06:37:47.485Z,1012.86
2017-11-20T06:38:56.106Z,1012.87
2017-11-20T06:40:04.734Z,1012.87
2017-11-20T06:41:13.361Z,1012.85
2017-11-20T06:42:21.976Z,1012.86
2017-11-20T06:43:30.600Z,1012.88
2017-11-20T06:44:39.223Z,1012.86
2017-11-20T06:45:47.852Z,1012.86
2017-11-20T06:46:56.480Z,1012.88
2017-11-20T06:48:05.101Z,1012.86
2017-11-20T06:49:13.728Z,1012.88
2017-11-20T06:50:22.352Z,1012.87
2017-11-20T06:51:30.968Z,1012.87
2017-11-20T06:52:39.598Z,1012.93
2017-11-20T06:53:48.225Z,1012.91
2017-11-20T06:54:56.839Z,1012.93
2017-11-20T06:56:05.474Z,1012.91
2017-11-20T06:57:14.097Z,1012.94
2017-11-20T06:58:22.720Z,1012.94
2017-11-20T06:59:31.347Z,1012.99
2017-11-20T07:00:39.965Z,1012.98
2017-11-20T07:01:48.589Z,1013.01
2017-11-20T07:02:57.214Z,1012.99
2017-11-20T07:04:06.109Z,1013.04
2017-11-20T07:05:15.004Z,1013.04
2017-11-20T07:06:23.632Z,1013.02
2017-11-20T07:07:32.258Z,1013.02
2017-11-20T07:08:40.889Z,1013.07
2017-11-20T07:09:49.507Z,1013.08
2017-11-20T07:10:58.130Z,1013.15
2017-11-20T07:12:06.758Z,1013.13
2017-11-20T07:13:15.375Z,1013.12
2017-11-20T07:14:24.003Z,1013.19
2017-11-20T07:15:32.624Z,1013.17
2017-11-20T07:16:41.250Z,1013.16
2017-11-20T07:17:49.878Z,1013.17
2017-11-20T07:18:58.492Z,1013.15
2017-11-20T07:20:07.116Z,1013.11
2017-11-20T07:21:15.746Z,1013.09
2017-11-20T07:22:24.364Z,1013.1
2017-11-20T07:23:32.989Z,1013.11
2017-11-20T07:24:41.611Z,1013.13
2017-11-20T07:25:50.234Z,1013.11
2017-11-20T07:26:58.856Z,1013.16
2017-11-20T07:28:07.493Z,1013.11
2017-11-20T07:29:16.110Z,1013.13
2017-11-20T07:30:24.761Z,1013.09
2017-11-20T07:31:33.348Z,1013.08
2017-11-20T07:32:41.970Z,1013.07
2017-11-20T07:33:50.598Z,1013.11
2017-11-20T07:34:59.223Z,1013.08
2017-11-20T07:36:07.842Z,1013.05
2017-11-20T07:37:16.740Z,1013.06
2017-11-20T07:38:25.357Z,1013.06
2017-11-20T07:39:33.980Z,1013.11
2017-11-20T07:40:42.610Z,1013.08
2017-11-20T07:41:51.505Z,1013.13
2017-11-20T07:43:00.126Z,1013.07
2017-11-20T07:44:08.745Z,1013.1
2017-11-20T07:45:17.364Z,1013.08
2017-11-20T07:46:25.999Z,1013.12
2017-11-20T07:47:35.165Z,1013.16
2017-11-20T07:48:43.788Z,1013.1
2017-11-20T07:49:52.422Z,1013.12
2017-11-20T07:51:01.042Z,1013.08
2017-11-20T07:52:09.669Z,1013.09
2017-11-20T07:53:18.843Z,1013.1
2017-11-20T07:54:27.469Z,1013.08
2017-11-20T07:55:36.086Z,1013.08
2017-11-20T07:56:44.714Z,1013.1
2017-11-20T07:57:53.889Z,1013.13
2017-11-20T07:59:02.519Z,1013.1
2017-11-20T08:00:11.138Z,1013.13
2017-11-20T08:01:19.757Z,1013.05
2017-11-20T08:02:28.384Z,1013.08
2017-11-20T08:03:37.009Z,1013.09
2017-11-20T08:04:45.628Z,1013.07
2017-11-20T08:05:54.519Z,1013.1
2017-11-20T08:07:03.136Z,1013.1
2017-11-20T08:08:11.766Z,1013.06
2017-11-20T08:09:20.666Z,1013.07
2017-11-20T08:10:29.290Z,1013.06
2017-11-20T08:11:38.180Z,1013.06
2017-11-20T08:12:46.797Z,1013.07
2017-11-20T08:13:55.428Z,1013.07
2017-11-20T08:15:04.046Z,1013.07
2017-11-20T08:16:12.665Z,1013.12
2017-11-20T08:17:21.296Z,1013.04
2017-11-20T08:18:29.921Z,1013.08
2017-11-20T08:19:38.541Z,1013.04
2017-11-20T08:20:47.165Z,1013
2017-11-20T08:21:55.791Z,1013.01
2017-11-20T08:23:04.406Z,1013.02
2017-11-20T08:24:13.037Z,1013.02
2017-11-20T08:25:21.959Z,1013.06
2017-11-20T08:26:30.573Z,1013
2017-11-20T08:27:39.203Z,1013.01
2017-11-20T08:28:47.824Z,1013.05
2017-11-20T08:29:56.449Z,1012.97
2017-11-20T08:31:05.078Z,1012.99
2017-11-20T08:32:13.970Z,1013
2017-11-20T08:33:22.595Z,1012.96
2017-11-20T08:34:31.224Z,1012.93
2017-11-20T08:35:39.840Z,1012.94
2017-11-20T08:36:48.464Z,1012.95
2017-11-20T08:37:57.091Z,1012.91
2017-11-20T08:39:05.979Z,1012.9
2017-11-20T08:40:14.599Z,1012.88
2017-11-20T08:41:23.228Z,1012.92
2017-11-20T08:42:31.852Z,1012.95
2017-11-20T08:43:40.482Z,1012.91
2017-11-20T08:44:49.103Z,1012.88
2017-11-20T08:45:57.988Z,1012.87
2017-11-20T08:47:06.617Z,1012.87
2017-11-20T08:48:15.236Z,1012.88
2017-11-20T08:49:24.125Z,1012.86
2017-11-20T08:50:32.758Z,1012.87
2017-11-20T08:51:41.377Z,1012.91
2017-11-20T08:52:49.999Z,1012.83
2017-11-20T08:53:58.634Z,1012.88
2017-11-20T08:55:07.521Z,1012.91
2017-11-20T08:56:16.144Z,1012.83
2017-11-20T08:57:24.772Z,1012.84
2017-11-20T08:58:33.387Z,1012.83
2017-11-20T08:59:42.014Z,1012.79
2017-11-20T09:00:50.634Z,1012.83
2017-11-20T09:01:59.271Z,1012.8
2017-11-20T09:03:07.901Z,1012.78
2017-11-20T09:04:16.545Z,1012.77
2017-11-20T09:05:25.141Z,1012.75
2017-11-20T09:06:33.767Z,1012.77
2017-11-20T09:07:42.389Z,1012.78
2017-11-20T09:08:51.289Z,1012.78
2017-11-20T09:09:59.909Z,1012.75
2017-11-20T09:11:08.537Z,1012.75
2017-11-20T09:12:17.418Z,1012.76
2017-11-20T09:13:26.049Z,1012.74
2017-11-20T09:14:34.669Z,1012.77
2017-11-20T09:15:43.285Z,1012.74
2017-11-20T09:16:51.908Z,1012.73
2017-11-20T09:18:00.537Z,1012.75
2017-11-20T09:19:09.163Z,1012.72
2017-11-20T09:20:17.779Z,1012.74
2017-11-20T09:21:26.409Z,1012.74
2017-11-20T09:22:35.030Z,1012.7
2017-11-20T09:23:43.656Z,1012.69
2017-11-20T09:24:52.281Z,1012.71
2017-11-20T09:26:01.162Z,1012.71
2017-11-20T09:27:09.789Z,1012.73
2017-11-20T09:28:18.408Z,1012.68
2017-11-20T09:29:27.033Z,1012.68
2017-11-20T09:30:35.664Z,1012.67
2017-11-20T09:31:44.289Z,1012.66
2017-11-20T09:32:52.921Z,1012.63
2017-11-20T09:34:01.547Z,1012.66
2017-11-20T09:35:10.167Z,1012.64
2017-11-20T09:36:18.798Z,1012.68
2017-11-20T09:37:27.682Z,1012.63
2017-11-20T09:38:36.304Z,1012.61
2017-11-20T09:39:44.933Z,1012.63
2017-11-20T09:40:53.550Z,1012.64
2017-11-20T09:42:02.177Z,1012.63
2017-11-20T09:43:10.799Z,1012.58
2017-11-20T09:44:19.419Z,1012.59
2017-11-20T09:45:28.052Z,1012.59
2017-11-20T09:46:36.676Z,1012.6
2017-11-20T09:47:45.292Z,1012.58
2017-11-20T09:48:53.921Z,1012.53
2017-11-20T09:50:02.543Z,1012.55
2017-11-20T09:51:11.161Z,1012.56
2017-11-20T09:52:19.788Z,1012.53
2017-11-20T09:53:28.412Z,1012.5
2017-11-20T09:54:37.026Z,1012.58
2017-11-20T09:55:45.654Z,1012.56
2017-11-20T09:56:54.278Z,1012.54
2017-11-20T09:58:02.932Z,1012.49
2017-11-20T09:59:11.788Z,1012.5
2017-11-20T10:00:20.409Z,1012.47
2017-11-20T10:01:29.032Z,1012.44
2017-11-20T10:02:37.652Z,1012.44
2017-11-20T10:03:46.276Z,1012.41
2017-11-20T10:04:54.892Z,1012.39
2017-11-20T10:06:03.783Z,1012.38
2017-11-20T10:07:12.414Z,1012.37
2017-11-20T10:08:21.040Z,1012.37
2017-11-20T10:09:29.662Z,1012.34
2017-11-20T10:10:38.287Z,1012.31
2017-11-20T10:11:46.908Z,1012.32
2017-11-20T10:12:55.539Z,1012.34
2017-11-20T10:14:04.429Z,1012.28
2017-11-20T10:15:13.053Z,1012.3
2017-11-20T10:16:21.683Z,1012.29
2017-11-20T10:17:30.579Z,1012.3
2017-11-20T10:18:39.200Z,1012.32
2017-11-20T10:19:47.828Z,1012.28
2017-11-20T10:20:56.447Z,1012.25
2017-11-20T10:22:05.063Z,1012.29
2017-11-20T10:23:13.689Z,1012.24
2017-11-20T10:24:22.305Z,1012.19
2017-11-20T10:25:30.937Z,1012.14
2017-11-20T10:26:39.555Z,1012.16
2017-11-20T10:27:48.176Z,1012.16
2017-11-20T10:28:56.804Z,1012.13
2017-11-20T10:30:05.424Z,1012.15
2017-11-20T10:31:14.038Z,1012.15
2017-11-20T10:32:22.668Z,1012.12
2017-11-20T10:33:31.559Z,1012.13
2017-11-20T10:34:40.442Z,1012.16
2017-11-20T10:35:49.069Z,1012.13
2017-11-20T10:36:57.698Z,1012.13
2017-11-20T10:38:06.578Z,1012.07
2017-11-20T10:39:15.209Z,1012
2017-11-20T10:40:23.825Z,1011.99
2017-11-20T10:41:32.717Z,1012.02
2017-11-20T10:42:41.434Z,1011.99
2017-11-20T10:43:50.324Z,1011.99
2017-11-20T10:44:59.215Z,1011.97
2017-11-20T10:46:07.847Z,1011.95
2017-11-20T10:47:16.469Z,1011.96
2017-11-20T10:48:25.087Z,1011.97
2017-11-20T10:49:33.723Z,1011.95
2017-11-20T10:50:42.603Z,1011.94
2017-11-20T10:51:51.225Z,1011.97
2017-11-20T10:52:59.855Z,1011.87
2017-11-20T10:54:08.472Z,1011.89
2017-11-20T10:55:17.106Z,1011.87
2017-11-20T10:56:25.730Z,1011.9
2017-11-20T10:57:34.351Z,1011.87
2017-11-20T10:58:42.980Z,1011.87
2017-11-20T10:59:51.603Z,1011.85
2017-11-20T11:01:00.231Z,1011.87
2017-11-20T11:02:08.848Z,1011.79
2017-11-20T11:03:17.477Z,1011.84
2017-11-20T11:04:26.097Z,1011.77
2017-11-20T11:05:34.720Z,1011.81
2017-11-20T11:06:43.348Z,1011.79
2017-11-20T11:07:51.974Z,1011.81
2017-11-20T11:09:00.857Z,1011.71
2017-11-20T11:10:09.481Z,1011.7
2017-11-20T11:11:18.104Z,1011.69
2017-11-20T11:12:26.995Z,1011.66
2017-11-20T11:13:35.624Z,1011.64
2017-11-20T11:14:44.513Z,1011.65
2017-11-20T11:15:53.137Z,1011.62
2017-11-20T11:17:01.764Z,1011.61
2017-11-20T11:18:10.391Z,1011.59
2017-11-20T11:19:19.280Z,1011.58
2017-11-20T11:20:27.915Z,1011.55
2017-11-20T11:21:36.547Z,1011.56
2017-11-20T11:22:45.182Z,1011.53
2017-11-20T11:23:53.830Z,1011.54
2017-11-20T11:25:02.493Z,1011.51
2017-11-20T11:26:11.395Z,1011.49
2017-11-20T11:27:22.081Z,1011.45
2017-11-20T11:28:30.743Z,1011.4
2017-11-20T11:29:39.514Z,1011.39
2017-11-20T11:30:48.391Z,1011.35
2017-11-20T11:31:57.036Z,1011.34
2017-11-20T11:33:05.735Z,1011.23
2017-11-20T11:34:14.535Z,1011.28
2017-11-20T11:35:23.230Z,1011.29
2017-11-20T11:36:31.903Z,1011.23
2017-11-20T11:37:40.918Z,1011.17
2017-11-20T11:38:49.756Z,1011.15
2017-11-20T11:39:58.434Z,1011.18
2017-11-20T11:41:07.130Z,1011.15
2017-11-20T11:42:16.018Z,1011.15
2017-11-20T11:43:24.737Z,1011.11
2017-11-20T11:44:33.536Z,1011.1
2017-11-20T11:45:42.581Z,1011.06
2017-11-20T11:46:51.960Z,1011.08
2017-11-20T11:48:00.920Z,1011.01
2017-11-20T11:49:10.169Z,1011.03
2017-11-20T11:50:19.452Z,1010.95
2017-11-20T11:51:28.108Z,1010.96
2017-11-20T11:52:37.074Z,1010.93
2017-11-20T11:53:46.158Z,1010.85
2017-11-20T11:54:54.920Z,1010.9
2017-11-20T11:56:04.122Z,1010.91
2017-11-20T11:57:12.862Z,1010.87
2017-11-20T11:58:21.736Z,1010.84
2017-11-20T11:59:30.380Z,1010.83
2017-11-20T12:00:39.362Z,1010.82
2017-11-20T12:01:48.198Z,1010.75
2017-11-20T12:02:56.825Z,1010.76
2017-11-20T12:04:05.450Z,1010.75
2017-11-20T12:05:14.350Z,1010.77
2017-11-20T12:06:22.967Z,1010.76
2017-11-20T12:07:31.597Z,1010.68
2017-11-20T12:08:40.219Z,1010.66
2017-11-20T12:09:48.839Z,1010.63
2017-11-20T12:10:57.735Z,1010.62
2017-11-20T12:12:06.351Z,1010.59
2017-11-20T12:13:14.986Z,1010.56
2017-11-20T12:14:23.879Z,1010.53
2017-11-20T12:15:32.770Z,1010.56
2017-11-20T12:16:41.397Z,1010.48
2017-11-20T12:17:50.018Z,1010.52
2017-11-20T12:18:58.638Z,1010.48
2017-11-20T12:20:07.258Z,1010.44
2017-11-20T12:21:15.886Z,1010.39
2017-11-20T12:22:24.502Z,1010.4
2017-11-20T12:23:33.122Z,1010.36
2017-11-20T12:24:41.743Z,1010.32
2017-11-20T12:25:50.628Z,1010.26
2017-11-20T12:26:59.256Z,1010.29
2017-11-20T12:28:07.880Z,1010.26
2017-11-20T12:29:16.503Z,1010.25
2017-11-20T12:30:25.133Z,1010.22
2017-11-20T12:31:33.754Z,1010.21
2017-11-20T12:32:42.588Z,1010.16
2017-11-20T12:33:51.220Z,1010.16
2017-11-20T12:34:59.960Z,1010.15
2017-11-20T12:36:08.613Z,1010.11
2017-11-20T12:37:17.404Z,1010.11
2017-11-20T12:38:26.038Z,1010.05
2017-11-20T12:39:34.928Z,1010
2017-11-20T12:40:43.831Z,1009.98
2017-11-20T12:41:52.446Z,1009.97
2017-11-20T12:43:01.076Z,1009.92
2017-11-20T12:44:09.954Z,1009.88
2017-11-20T12:45:18.555Z,1009.85
2017-11-20T12:46:27.180Z,1009.83
2017-11-20T12:47:35.810Z,1009.81
2017-11-20T12:48:44.426Z,1009.83
2017-11-20T12:49:53.057Z,1009.83
2017-11-20T12:51:01.678Z,1009.79
2017-11-20T12:52:10.738Z,1009.79
2017-11-20T12:53:19.454Z,1009.72
2017-11-20T12:54:28.078Z,1009.72
2017-11-20T12:55:36.964Z,1009.71
2017-11-20T12:56:45.639Z,1009.65
2017-11-20T12:57:54.257Z,1009.67
2017-11-20T12:59:02.879Z,1009.65
2017-11-20T13:00:11.504Z,1009.58
2017-11-20T13:01:20.133Z,1009.54
2017-11-20T13:02:28.756Z,1009.49
2017-11-20T13:03:37.379Z,1009.46
2017-11-20T13:04:46.006Z,1009.43
2017-11-20T13:05:54.623Z,1009.43
2017-11-20T13:07:03.247Z,1009.38
2017-11-20T13:08:11.873Z,1009.32
2017-11-20T13:09:20.495Z,1009.37
2017-11-20T13:10:29.143Z,1009.32
2017-11-20T13:11:37.747Z,1009.27
2017-11-20T13:12:46.368Z,1009.21
2017-11-20T13:13:55.002Z,1009.13
2017-11-20T13:15:03.628Z,1009.12
2017-11-20T13:16:12.248Z,1009.06
2017-11-20T13:17:20.877Z,1009.05
2017-11-20T13:18:29.502Z,1009.04
2017-11-20T13:19:38.130Z,1008.99
2017-11-20T13:20:47.022Z,1009.02
2017-11-20T13:21:55.645Z,1008.92
2017-11-20T13:23:04.532Z,1008.86
2017-11-20T13:24:13.462Z,1008.85
2017-11-20T13:25:22.079Z,1008.84
2017-11-20T13:26:30.712Z,1008.77
2017-11-20T13:27:39.342Z,1008.78
2017-11-20T13:28:48.365Z,1008.72
2017-11-20T13:29:56.988Z,1008.71
2017-11-20T13:31:05.622Z,1008.7
2017-11-20T13:32:14.334Z,1008.64
2017-11-20T13:33:23.070Z,1008.66
2017-11-20T13:34:32.502Z,1008.59
2017-11-20T13:35:41.145Z,1008.57
2017-11-20T13:36:49.789Z,1008.48
2017-11-20T13:37:58.430Z,1008.53
2017-11-20T13:39:07.049Z,1008.51
2017-11-20T13:40:15.671Z,1008.46
2017-11-20T13:41:24.566Z,1008.42
2017-11-20T13:42:33.195Z,1008.4
2017-11-20T13:43:41.812Z,1008.34
2017-11-20T13:44:50.703Z,1008.32
2017-11-20T13:45:59.327Z,1008.23
2017-11-20T13:47:07.949Z,1008.24
2017-11-20T13:48:16.572Z,1008.2
2017-11-20T13:49:25.194Z,1008.19
2017-11-20T13:50:33.822Z,1008.11
2017-11-20T13:51:42.451Z,1008.11
2017-11-20T13:52:51.332Z,1008.03
2017-11-20T13:53:59.961Z,1008.05